createdAt,value
2023-05-19T00:02:52.921Z,2.90
2023-05-19T00:05:56.653Z,2.70
2023-05-19T00:09:06.972Z,2.90
2023-05-19T00:12:10.166Z,2.30
2023-05-19T00:15:12.454Z,2.50
2023-05-19T00:21:17.773Z,2.80
2023-05-19T00:24:19.485Z,2.50
2023-05-19T00:27:21.295Z,2.00
2023-05-19T00:30:23.005Z,2.00
2023-05-19T00:33:26.018Z,2.20
2023-05-19T00:36:27.777Z,2.10
2023-05-19T00:39:31.091Z,1.90
2023-05-19T00:42:33.435Z,1.90
2023-05-19T00:45:35.247Z,2.30
2023-05-19T00:48:37.093Z,1.60
2023-05-19T00:51:40.038Z,2.00
2023-05-19T00:54:43.776Z,2.40
2023-05-19T00:57:46.430Z,2.10
2023-05-19T01:00:49.077Z,2.10
2023-05-19T01:03:51.121Z,2.20
2023-05-19T01:06:54.366Z,1.90
2023-05-19T01:09:56.756Z,2.00
2023-05-19T01:12:58.730Z,2.50
2023-05-19T01:16:26.289Z,2.40
2023-05-19T01:19:46.263Z,2.10
2023-05-19T01:22:59.819Z,1.80
2023-05-19T01:26:26.198Z,2.10
2023-05-19T01:29:56.192Z,1.80
2023-05-19T01:33:01.241Z,1.90
2023-05-19T01:36:04.478Z,1.80
2023-05-19T01:39:06.570Z,1.80
2023-05-19T01:42:08.732Z,1.90
2023-05-19T01:51:15.623Z,1.80
2023-05-19T01:54:17.691Z,1.60
2023-05-19T01:57:58.078Z,1.60
2023-05-19T02:01:24.064Z,1.80
2023-05-19T02:04:52.215Z,1.50
2023-05-19T02:08:23.579Z,2.00
2023-05-19T02:11:37.257Z,1.50
2023-05-19T02:14:45.091Z,1.90
2023-05-19T02:17:51.175Z,2.10
2023-05-19T02:20:52.996Z,1.90
2023-05-19T02:23:54.834Z,2.40
2023-05-19T02:26:56.618Z,1.90
2023-05-19T02:29:58.346Z,1.80
2023-05-19T02:33:00.246Z,2.00
2023-05-19T02:36:02.494Z,1.90
2023-05-19T02:42:06.181Z,1.80
2023-05-19T02:45:08.156Z,2.20
2023-05-19T02:48:10.066Z,2.00
2023-05-19T02:51:11.883Z,2.00
2023-05-19T02:54:13.753Z,2.10
2023-05-19T02:57:15.550Z,1.80
2023-05-19T03:00:17.393Z,2.10
2023-05-19T03:06:23.735Z,2.40
2023-05-19T03:09:25.420Z,2.50
2023-05-19T03:12:27.246Z,2.70
2023-05-19T03:15:30.023Z,2.70
2023-05-19T03:18:31.901Z,2.40
2023-05-19T03:21:34.178Z,2.70
2023-05-19T03:24:35.915Z,2.70
2023-05-19T03:27:37.714Z,2.60
2023-05-19T03:30:39.554Z,2.00
2023-05-19T03:33:51.551Z,2.40
2023-05-19T03:36:53.306Z,3.40
2023-05-19T03:39:55.312Z,2.50
2023-05-19T03:42:57.142Z,2.20
2023-05-19T03:45:59.058Z,2.30
2023-05-19T03:49:19.294Z,2.60
2023-05-19T03:52:32.988Z,2.60
2023-05-19T03:55:43.933Z,2.20
2023-05-19T03:58:51.321Z,2.30
2023-05-19T04:01:53.545Z,3.00
2023-05-19T04:04:55.394Z,2.60
2023-05-19T04:07:57.145Z,2.40
2023-05-19T04:10:59.037Z,2.40
2023-05-19T04:14:00.862Z,2.80
2023-05-19T04:17:02.677Z,2.90
2023-05-19T04:20:07.979Z,2.40
2023-05-19T04:23:09.900Z,2.50
2023-05-19T04:26:14.167Z,2.30
2023-05-19T04:29:17.350Z,2.90
2023-05-19T04:32:19.197Z,2.60
2023-05-19T04:35:21.910Z,2.50
2023-05-19T04:38:24.016Z,2.50
2023-05-19T04:44:29.543Z,2.30
2023-05-19T04:47:36.281Z,2.40
2023-05-19T04:50:41.397Z,2.60
2023-05-19T04:53:43.176Z,2.50
2023-05-19T04:56:45.593Z,2.30
2023-05-19T04:59:48.810Z,2.20
2023-05-19T05:02:50.911Z,2.60
2023-05-19T05:05:53.784Z,2.60
2023-05-19T05:08:56.337Z,2.50
2023-05-19T05:11:58.549Z,2.60
2023-05-19T05:15:02.102Z,2.50
2023-05-19T05:18:04.365Z,2.60
2023-05-19T05:21:06.861Z,2.70
2023-05-19T05:24:10.439Z,2.80
2023-05-19T05:27:13.079Z,2.80
2023-05-19T05:30:14.875Z,3.10
2023-05-19T05:33:19.268Z,2.50
2023-05-19T05:36:23.048Z,2.50
2023-05-19T05:39:25.005Z,2.60
2023-05-19T05:42:28.880Z,2.90
2023-05-19T05:45:32.007Z,2.70
2023-05-19T05:48:35.126Z,3.20
2023-05-19T05:51:37.081Z,2.80
2023-05-19T05:54:39.742Z,3.10
2023-05-19T05:57:42.113Z,2.80
2023-05-19T06:00:44.805Z,3.40
2023-05-19T06:03:46.697Z,3.30
2023-05-19T06:06:52.846Z,4.10
2023-05-19T06:09:57.121Z,4.40
2023-05-19T06:12:59.214Z,4.20
2023-05-19T06:16:02.342Z,4.50
2023-05-19T06:19:13.833Z,5.10
2023-05-19T06:25:17.609Z,4.80
2023-05-19T06:28:19.573Z,5.10
2023-05-19T06:34:27.503Z,4.60
2023-05-19T06:37:29.195Z,4.50
2023-05-19T06:40:31.683Z,4.50
2023-05-19T06:43:33.574Z,4.80
2023-05-19T06:46:38.206Z,5.30
2023-05-19T06:49:40.208Z,5.70
2023-05-19T06:52:43.278Z,5.00
2023-05-19T06:55:58.102Z,5.20
2023-05-19T06:59:02.162Z,5.30
2023-05-19T07:02:07.682Z,5.50
2023-05-19T07:05:10.058Z,5.60
2023-05-19T07:08:11.862Z,5.80
2023-05-19T07:11:15.218Z,5.80
2023-05-19T07:14:17.450Z,5.80
2023-05-19T07:17:19.528Z,5.40
2023-05-19T07:20:21.615Z,5.60
2023-05-19T07:23:23.648Z,6.00
2023-05-19T07:26:26.175Z,5.50
2023-05-19T07:29:28.004Z,5.40
2023-05-19T07:32:29.837Z,5.80
2023-05-19T07:35:32.209Z,5.80
2023-05-19T07:41:36.520Z,5.60
2023-05-19T07:44:38.472Z,5.70
2023-05-19T07:47:40.611Z,5.70
2023-05-19T07:53:44.258Z,5.80
2023-05-19T07:56:46.594Z,5.80
2023-05-19T08:02:56.296Z,5.90
2023-05-19T08:05:58.193Z,6.50
2023-05-19T08:09:00.351Z,6.20
2023-05-19T08:12:04.328Z,5.60
2023-05-19T08:15:06.894Z,6.10
2023-05-19T08:18:08.995Z,5.80
2023-05-19T08:21:11.163Z,6.10
2023-05-19T08:27:18.959Z,5.60
2023-05-19T08:30:20.905Z,6.10
2023-05-19T08:36:40.196Z,6.40
2023-05-19T08:39:41.909Z,5.90
2023-05-19T08:42:46.939Z,6.90
2023-05-19T08:45:49.421Z,6.40
2023-05-19T08:48:54.609Z,6.60
2023-05-19T08:52:18.064Z,6.40
2023-05-19T08:55:33.299Z,6.00
2023-05-19T08:58:35.695Z,5.90
2023-05-19T09:04:40.920Z,6.40
2023-05-19T09:07:43.937Z,6.70
2023-05-19T09:10:45.893Z,6.30
2023-05-19T09:13:49.053Z,6.30
2023-05-19T09:16:52.258Z,6.90
2023-05-19T09:19:54.774Z,7.20
2023-05-19T09:22:56.813Z,7.30
2023-05-19T09:26:03.435Z,7.20
2023-05-19T09:29:17.837Z,6.80
2023-05-19T09:32:26.122Z,7.00
2023-05-19T09:35:28.117Z,7.40
2023-05-19T09:38:29.968Z,7.30
2023-05-19T09:41:32.581Z,8.00
2023-05-19T09:44:34.938Z,8.30
2023-05-19T09:47:41.492Z,8.10
2023-05-19T09:50:44.942Z,7.60
2023-05-19T09:53:47.661Z,7.20
2023-05-19T09:57:03.657Z,7.10
2023-05-19T10:00:22.469Z,7.00
2023-05-19T10:03:25.848Z,6.90
2023-05-19T10:06:27.964Z,7.10
2023-05-19T10:09:29.988Z,7.30
2023-05-19T10:12:32.788Z,7.40
2023-05-19T10:15:43.674Z,7.10
2023-05-19T10:18:59.130Z,7.30
2023-05-19T10:22:01.156Z,6.90
2023-05-19T10:25:03.967Z,6.60
2023-05-19T10:28:12.777Z,7.20
2023-05-19T10:31:18.862Z,7.50
2023-05-19T10:34:29.908Z,7.60
2023-05-19T10:37:57.349Z,7.40
2023-05-19T10:41:27.118Z,7.20
2023-05-19T10:44:34.959Z,6.60
2023-05-19T10:47:36.871Z,6.50
2023-05-19T10:50:38.801Z,7.10
2023-05-19T10:53:45.693Z,6.60
2023-05-19T10:56:47.939Z,6.30
2023-05-19T11:02:57.253Z,6.90
2023-05-19T11:06:23.891Z,7.30
2023-05-19T11:09:34.021Z,7.10
2023-05-19T11:12:45.509Z,6.20
2023-05-19T11:15:47.360Z,7.30
2023-05-19T11:18:49.991Z,6.90
2023-05-19T11:21:56.748Z,6.60
2023-05-19T11:24:58.606Z,6.80
2023-05-19T11:28:00.632Z,6.20
2023-05-19T11:31:07.512Z,6.50
2023-05-19T11:34:10.351Z,7.00
2023-05-19T11:37:12.259Z,6.80
2023-05-19T11:40:15.132Z,6.50
2023-05-19T11:43:16.917Z,7.40
2023-05-19T11:46:18.858Z,6.50
2023-05-19T11:49:20.745Z,6.90
2023-05-19T11:52:24.162Z,6.80
2023-05-19T11:55:26.240Z,6.60
2023-05-19T11:58:28.060Z,6.60
2023-05-19T12:01:31.293Z,6.50
2023-05-19T12:04:33.277Z,7.20
2023-05-19T12:07:38.808Z,7.10
2023-05-19T12:10:40.872Z,7.60
2023-05-19T12:13:43.504Z,7.00
2023-05-19T12:16:45.911Z,7.00
2023-05-19T12:19:48.919Z,7.00
2023-05-19T12:22:51.301Z,6.90
2023-05-19T12:25:53.950Z,6.10
2023-05-19T12:28:55.996Z,6.40
2023-05-19T12:31:58.273Z,7.20
2023-05-19T12:38:05.594Z,5.80
2023-05-19T12:41:10.183Z,6.80
2023-05-19T12:44:15.658Z,6.90
2023-05-19T12:47:19.373Z,6.70
2023-05-19T12:50:21.539Z,6.50
2023-05-19T12:53:26.654Z,6.50
2023-05-19T12:56:28.574Z,6.10
2023-05-19T12:59:38.400Z,7.00
2023-05-19T13:03:00.907Z,6.80
2023-05-19T13:06:02.915Z,6.50
2023-05-19T13:09:06.638Z,6.90
2023-05-19T13:12:08.431Z,6.40
2023-05-19T13:15:10.904Z,6.40
2023-05-19T13:18:13.555Z,5.90
2023-05-19T13:21:15.373Z,7.30
2023-05-19T13:24:17.175Z,6.00
2023-05-19T13:27:19.553Z,5.60
2023-05-19T13:30:22.158Z,5.70
2023-05-19T13:33:24.102Z,5.80
2023-05-19T13:36:27.321Z,6.20
2023-05-19T13:39:29.111Z,5.60
2023-05-19T13:42:34.591Z,5.60
2023-05-19T13:45:36.660Z,5.70
2023-05-19T13:48:38.506Z,5.60
2023-05-19T13:51:43.351Z,5.40
2023-05-19T13:54:46.438Z,5.70
2023-05-19T13:57:48.729Z,5.50
2023-05-19T14:00:53.941Z,6.00
2023-05-19T14:03:55.832Z,5.70
2023-05-19T14:06:57.987Z,5.50
2023-05-19T14:10:00.097Z,6.00
2023-05-19T14:16:07.927Z,5.50
2023-05-19T14:19:11.099Z,5.70
2023-05-19T14:26:29.462Z,5.90
2023-05-19T14:32:33.014Z,6.00
2023-05-19T14:35:34.754Z,6.30
2023-05-19T14:38:36.477Z,6.40
2023-05-19T14:41:38.171Z,6.00
2023-05-19T14:44:39.939Z,6.70
2023-05-19T14:47:41.657Z,6.60
2023-05-19T14:50:43.780Z,6.60
2023-05-19T14:53:45.607Z,6.10
2023-05-19T14:56:47.606Z,6.60
2023-05-19T14:59:49.499Z,6.00
2023-05-19T15:02:55.412Z,5.90
2023-05-19T15:05:57.206Z,6.60
2023-05-19T15:08:58.948Z,5.80
2023-05-19T15:12:00.641Z,5.30
2023-05-19T15:15:02.920Z,5.00
2023-05-19T15:21:06.485Z,4.60
2023-05-19T15:24:08.148Z,5.30
2023-05-19T15:27:09.970Z,6.30
2023-05-19T15:30:11.887Z,5.60
2023-05-19T15:33:13.763Z,5.50
2023-05-19T15:36:16.787Z,5.70
2023-05-19T15:39:18.684Z,6.20
2023-05-19T15:42:20.511Z,5.50
2023-05-19T15:45:22.224Z,8.30
2023-05-19T15:48:28.057Z,7.70
2023-05-19T15:51:30.620Z,6.80
2023-05-19T15:54:32.449Z,5.20
2023-05-19T15:57:34.228Z,5.70
2023-05-19T16:00:36.380Z,6.70
2023-05-19T16:03:38.628Z,5.90
2023-05-19T16:09:42.412Z,6.50
2023-05-19T16:12:44.373Z,6.70
2023-05-19T16:15:46.478Z,6.10
2023-05-19T16:18:50.126Z,5.90
2023-05-19T16:21:51.844Z,6.00
2023-05-19T16:24:53.710Z,5.70
2023-05-19T16:27:55.617Z,6.40
2023-05-19T16:30:58.993Z,8.20
2023-05-19T16:34:01.312Z,7.10
2023-05-19T16:37:03.403Z,6.20
2023-05-19T16:40:06.829Z,6.50
2023-05-19T16:43:08.578Z,6.30
2023-05-19T16:46:11.581Z,5.70
2023-05-19T16:49:13.612Z,6.50
2023-05-19T16:52:15.358Z,6.00
2023-05-19T16:55:19.400Z,6.50
2023-05-19T16:58:21.202Z,7.00
2023-05-19T17:01:23.023Z,6.30
2023-05-19T17:04:25.116Z,6.70
2023-05-19T17:07:28.496Z,7.30
2023-05-19T17:10:30.873Z,7.40
2023-05-19T17:13:35.820Z,7.70
2023-05-19T17:16:37.983Z,7.40
2023-05-19T17:19:39.813Z,7.30
2023-05-19T17:22:42.902Z,7.80
2023-05-19T17:25:44.578Z,8.20
2023-05-19T17:28:46.310Z,8.80
2023-05-19T17:31:48.215Z,9.70
2023-05-19T17:34:50.220Z,9.30
2023-05-19T17:37:51.927Z,9.60
2023-05-19T17:41:08.959Z,9.70
2023-05-19T17:44:10.710Z,10.30
2023-05-19T17:47:12.511Z,9.20
2023-05-19T17:50:14.289Z,9.50
2023-05-19T17:53:16.368Z,10.30
2023-05-19T17:56:22.522Z,9.40
2023-05-19T17:59:25.668Z,9.90
2023-05-19T18:05:32.370Z,9.70
2023-05-19T18:08:35.959Z,10.00
2023-05-19T18:11:37.753Z,9.90
2023-05-19T18:14:40.488Z,9.50
2023-05-19T18:17:42.338Z,10.00
2023-05-19T18:20:45.087Z,9.70
2023-05-19T18:23:47.330Z,9.40
2023-05-19T18:29:50.668Z,9.30
2023-05-19T18:32:52.489Z,9.60
2023-05-19T18:35:55.423Z,9.60
2023-05-19T18:38:58.557Z,10.90
2023-05-19T18:42:01.292Z,10.20
2023-05-19T18:45:03.770Z,10.50
2023-05-19T18:51:09.845Z,10.00
2023-05-19T18:54:11.910Z,11.20
2023-05-19T18:57:14.368Z,11.30
2023-05-19T19:00:16.522Z,11.30
2023-05-19T19:03:18.269Z,11.00
2023-05-19T19:06:22.843Z,11.60
2023-05-19T19:09:25.046Z,12.10
2023-05-19T19:12:26.991Z,12.10
2023-05-19T19:15:28.925Z,11.50
2023-05-19T19:18:31.197Z,11.40
2023-05-19T19:24:36.455Z,11.30
2023-05-19T19:27:38.326Z,12.20
2023-05-19T19:30:40.363Z,11.80
2023-05-19T19:33:42.941Z,14.30
2023-05-19T19:36:47.120Z,13.40
2023-05-19T19:39:49.106Z,12.80
2023-05-19T19:42:51.375Z,13.70
2023-05-19T19:46:00.409Z,13.90
2023-05-19T19:49:02.516Z,14.20
2023-05-19T19:52:04.703Z,14.60
2023-05-19T19:58:08.961Z,13.30
2023-05-19T20:04:12.928Z,13.00
2023-05-19T20:07:18.908Z,13.20
2023-05-19T20:10:21.000Z,13.30
2023-05-19T20:13:22.844Z,13.40
2023-05-19T20:16:24.960Z,13.50
2023-05-19T20:19:27.332Z,14.10
2023-05-19T20:22:29.134Z,12.90
2023-05-19T20:25:31.156Z,13.70
2023-05-19T20:28:34.473Z,12.60
2023-05-19T20:31:36.246Z,12.00
2023-05-19T20:34:38.290Z,11.70
2023-05-19T20:40:41.951Z,11.80
2023-05-19T20:43:43.695Z,11.70
2023-05-19T20:46:45.562Z,11.90
2023-05-19T20:49:47.783Z,12.30
2023-05-19T20:55:51.615Z,11.40
2023-05-19T20:58:53.378Z,10.90
2023-05-19T21:01:55.094Z,11.60
2023-05-19T21:04:57.311Z,11.70
2023-05-19T21:07:59.050Z,11.90
2023-05-19T21:11:00.870Z,11.80
2023-05-19T21:14:05.489Z,10.90
2023-05-19T21:17:07.380Z,10.70
2023-05-19T21:20:09.674Z,10.30
2023-05-19T21:23:11.622Z,10.80
2023-05-19T21:26:13.488Z,11.80
2023-05-19T21:29:15.213Z,11.70
2023-05-19T21:32:16.966Z,11.50
2023-05-19T21:35:19.335Z,11.40
2023-05-19T21:41:26.398Z,10.50
2023-05-19T21:44:28.608Z,11.00
2023-05-19T21:50:35.791Z,10.70
2023-05-19T21:53:37.615Z,11.70
2023-05-19T21:56:39.462Z,11.70
2023-05-19T21:59:41.366Z,11.50
2023-05-19T22:02:43.290Z,12.10
2023-05-19T22:05:52.565Z,11.70
2023-05-19T22:08:54.405Z,11.20
2023-05-19T22:11:56.105Z,10.90
2023-05-19T22:14:58.109Z,11.40
2023-05-19T22:17:59.914Z,11.90
2023-05-19T22:21:01.893Z,11.50
2023-05-19T22:24:04.008Z,12.00
2023-05-19T22:27:07.415Z,11.90
2023-05-19T22:30:09.156Z,12.70
2023-05-19T22:33:11.531Z,13.40
2023-05-19T22:36:15.427Z,12.70
2023-05-19T22:39:17.102Z,12.60
2023-05-19T22:42:18.854Z,13.30
2023-05-19T22:45:20.697Z,14.00
2023-05-19T22:48:22.513Z,13.00
2023-05-19T22:51:24.388Z,13.10
2023-05-19T22:54:26.250Z,13.90
2023-05-19T22:57:28.059Z,14.10
2023-05-19T23:00:29.825Z,10.00
2023-05-19T23:03:31.536Z,13.60
2023-05-19T23:06:33.292Z,13.60
2023-05-19T23:09:35.036Z,13.40
2023-05-19T23:12:36.824Z,13.70
2023-05-19T23:15:38.568Z,14.10
2023-05-19T23:18:40.954Z,14.60
2023-05-19T23:21:43.997Z,14.80
2023-05-19T23:24:45.843Z,15.50
2023-05-19T23:27:47.614Z,14.70
2023-05-19T23:30:53.570Z,14.90
2023-05-19T23:33:55.393Z,13.70
2023-05-19T23:36:57.273Z,14.00
2023-05-19T23:39:59.024Z,13.60
2023-05-19T23:43:00.869Z,13.90
2023-05-19T23:46:02.871Z,14.20
2023-05-19T23:49:04.649Z,15.20
2023-05-19T23:52:06.775Z,15.10
2023-05-19T23:55:09.257Z,15.40
2023-05-19T23:58:11.054Z,16.10
